Time;durP1;ratioP1;P1;durP2;ratioP2;P2;SDS_P1;SDS_P2;PMS_P1;PMS_P2;Temp;Humidity;BMP_temperature;BMP_pressure;BME280_temperature;BME280_humidity;BME280_pressure;Samples;Min_cycle;Max_cycle;Signal;HPM_P1;HPM_P2
2021/08/02 00:00:07;;;;;;;5.53;4.65;;;;;;;11.91;54.55;95181.09;5015867;28;20554;-65
2021/08/02 00:02:57;;;;;;;5.95;4.50;;;;;;;11.76;55.16;95181.19;5002678;28;20547;-65
2021/08/02 00:05:23;;;;;;;8.15;5.40;;;;;;;11.78;55.01;95179.16;5004028;28;20110;-65
2021/08/02 00:07:59;;;;;;;6.97;5.80;;;;;;;11.66;55.49;95170.06;5006197;28;20121;-65
2021/08/02 00:10:32;;;;;;;6.82;5.05;;;;;;;12.01;54.65;95173.53;5001737;28;20220;-65
2021/08/02 00:13:16;;;;;;;6.82;5.38;;;;;;;11.40;56.05;95172.38;4999238;28;20098;-65
2021/08/02 00:15:41;;;;;;;6.68;5.40;;;;;;;11.49;56.09;95178.38;5006176;28;20538;-65
2021/08/02 00:18:07;;;;;;;7.25;5.50;;;;;;;10.84;57.97;95180.06;5006852;28;20082;-65
2021/08/02 00:20:34;;;;;;;7.07;5.30;;;;;;;11.27;56.90;95183.75;5006221;28;20106;-65
2021/08/02 00:23:05;;;;;;;7.63;5.60;;;;;;;11.43;56.31;95184.47;5006458;28;20082;-65
2021/08/02 00:25:30;;;;;;;8.45;6.25;;;;;;;11.01;57.32;95179.81;5006672;28;20522;-65
2021/08/02 00:27:55;;;;;;;8.77;6.20;;;;;;;11.40;56.31;95177.72;5006448;28;20138;-65
2021/08/02 00:30:21;;;;;;;8.75;6.10;;;;;;;11.40;56.50;95183.03;5037876;28;20086;-65
2021/08/02 00:32:47;;;;;;;10.93;7.00;;;;;;;11.43;56.61;95171.16;5007287;28;20110;-65
2021/08/02 00:35:12;;;;;;;8.93;6.70;;;;;;;11.17;57.50;95178.75;5009489;28;20222;-65
2021/08/02 00:37:58;;;;;;;10.13;6.93;;;;;;;11.30;57.00;95179.88;5008819;28;20090;-65
2021/08/02 00:40:42;;;;;;;8.73;7.05;;;;;;;11.43;56.59;95176.50;5009682;28;20113;-65
2021/08/02 00:43:29;;;;;;;7.85;6.38;;;;;;;11.30;57.26;95183.38;5009794;28;20132;-65
2021/08/02 00:45:54;;;;;;;9.60;7.13;;;;;;;11.45;56.42;95174.44;5004501;28;20082;-65
2021/08/02 00:48:26;;;;;;;8.88;6.35;;;;;;;10.99;57.58;95179.19;4995778;28;20267;-65
2021/08/02 00:50:52;;;;;;;9.38;6.63;;;;;;;11.17;57.11;95180.59;5008980;28;20074;-65
2021/08/02 00:53:22;;;;;;;9.57;6.63;;;;;;;10.40;59.73;95175.75;5010229;28;20415;-65
2021/08/02 00:55:59;;;;;;;9.77;7.30;;;;;;;10.09;60.75;95183.78;5009980;28;20625;-65
2021/08/02 00:58:27;;;;;;;9.07;6.70;;;;;;;10.35;59.89;95187.78;5010114;28;20221;-65
2021/08/02 01:00:52;;;;;;;10.85;7.97;;;;;;;9.79;61.75;95182.97;4992150;28;20116;-65
2021/08/02 01:03:18;;;;;;;8.90;6.63;;;;;;;9.87;61.60;95182.03;5008407;28;20110;-65
2021/08/02 01:05:46;;;;;;;10.80;8.10;;;;;;;10.45;59.64;95178.66;5009286;28;20074;-66
2021/08/02 01:08:21;;;;;;;12.27;7.25;;;;;;;10.29;60.31;95182.34;5009334;28;20117;-65
2021/08/02 01:10:47;;;;;;;10.82;7.70;;;;;;;10.72;59.32;95179.75;5008126;28;20125;-65
2021/08/02 01:13:13;;;;;;;12.25;7.72;;;;;;;10.83;58.81;95180.25;5005425;28;20185;-65
2021/08/02 01:15:40;;;;;;;11.30;7.65;;;;;;;10.74;59.12;95180.41;5011550;28;20463;-65
2021/08/02 01:18:05;;;;;;;11.90;8.80;;;;;;;11.30;57.34;95182.53;5009287;28;20135;-65
2021/08/02 01:20:32;;;;;;;14.63;9.68;;;;;;;10.70;59.28;95184.44;4991074;28;20234;-65
2021/08/02 01:22:59;;;;;;;13.13;9.00;;;;;;;10.88;58.83;95188.50;5012939;28;20078;-65
2021/08/02 01:25:33;;;;;;;13.63;9.60;;;;;;;10.51;59.67;95180.59;5048997;28;20067;-65
2021/08/02 01:28:14;;;;;;;12.35;8.52;;;;;;;10.88;58.82;95183.16;5009251;28;20494;-65
2021/08/02 01:30:52;;;;;;;12.20;9.07;;;;;;;10.92;58.65;95175.63;5010586;28;20074;-66
2021/08/02 01:33:28;;;;;;;;;;;;;;;11.47;57.06;95185.75;5011535;28;20098;-65
2021/08/02 01:35:54;;;;;;;11.20;8.23;;;;;;;10.92;58.23;95186.28;5014444;28;20004;-65
2021/08/02 01:38:19;;;;;;;10.90;8.55;;;;;;;11.57;56.51;95191.56;5013319;28;20081;-66
2021/08/02 01:40:44;;;;;;;10.85;8.55;;;;;;;11.78;55.59;95184.50;5011415;28;20774;-65
2021/08/02 01:43:10;;;;;;;11.05;7.78;;;;;;;11.29;56.82;95189.69;5015010;28;20121;-65
2021/08/02 01:45:40;;;;;;;11.90;8.23;;;;;;;11.28;57.13;95193.38;5008390;28;20090;-65
2021/08/02 01:48:16;;;;;;;11.02;8.60;;;;;;;10.89;58.59;95198.16;5012763;28;20559;-65
2021/08/02 01:51:01;;;;;;;14.32;9.13;;;;;;;10.91;58.20;95196.13;4988951;28;20123;-65
2021/08/02 01:53:43;;;;;;;12.20;8.68;;;;;;;10.74;58.96;95191.03;5008910;28;20133;-65
2021/08/02 01:56:27;;;;;;;11.35;9.45;;;;;;;11.08;57.86;95188.69;5009646;28;20137;-66
2021/08/02 01:59:06;;;;;;;13.00;9.52;;;;;;;10.78;59.12;95180.81;4995212;28;20081;-65
2021/08/02 02:01:32;;;;;;;12.95;9.13;;;;;;;11.33;57.33;95193.66;5006448;28;20074;-65
2021/08/02 02:03:58;;;;;;;12.05;9.07;;;;;;;10.68;59.26;95188.31;4989854;28;20451;-65
2021/08/02 02:06:27;;;;;;;15.18;10.00;;;;;;;11.02;58.17;95186.81;5007982;28;20093;-65
2021/08/02 02:08:56;;;;;;;13.52;10.38;;;;;;;11.22;57.69;95191.50;5010200;28;20152;-65
2021/08/02 02:11:22;;;;;;;15.63;10.93;;;;;;;11.56;56.88;95189.91;5009074;28;20113;-65
2021/08/02 02:13:50;;;;;;;13.60;10.20;;;;;;;11.57;56.64;95194.22;5004291;28;20075;-65
2021/08/02 02:16:16;;;;;;;12.63;10.00;;;;;;;11.61;56.75;95194.66;5008373;28;20738;-65
2021/08/02 02:18:46;;;;;;;13.07;10.40;;;;;;;11.99;55.46;95196.09;5011364;28;20078;-65
2021/08/02 02:21:11;;;;;;;14.35;12.00;;;;;;;11.75;55.64;95195.56;4990440;28;20132;-66
2021/08/02 02:23:37;;;;;;;13.38;9.98;;;;;;;12.09;54.77;95201.94;5006282;28;20625;-65
2021/08/02 02:26:02;;;;;;;14.90;11.43;;;;;;;12.24;54.54;95200.97;5008102;28;20075;-65
2021/08/02 02:28:28;;;;;;;14.20;11.10;;;;;;;12.70;53.47;95204.00;4991988;28;20106;-65
2021/08/02 02:30:53;;;;;;;14.43;11.55;;;;;;;12.31;54.22;95211.69;5013074;28;20070;-65
2021/08/02 02:33:19;;;;;;;14.38;10.57;;;;;;;12.62;53.50;95205.81;5007590;28;20507;-65
2021/08/02 02:35:45;;;;;;;15.05;11.00;;;;;;;12.30;54.66;95210.84;4988181;28;20202;-65
2021/08/02 02:38:11;;;;;;;13.90;9.88;;;;;;;12.63;53.70;95204.81;5009280;28;20085;-65
2021/08/02 02:40:38;;;;;;;14.88;11.80;;;;;;;12.75;53.16;95198.88;4991097;28;20106;-65
2021/08/02 02:43:04;;;;;;;12.82;10.15;;;;;;;12.84;53.05;95200.34;5012172;28;20120;-65
2021/08/02 02:45:30;;;;;;;14.40;10.57;;;;;;;12.88;52.55;95203.41;5011934;28;20385;-65
2021/08/02 02:47:55;;;;;;;14.30;11.18;;;;;;;12.62;53.45;95197.81;5009792;28;20551;-68
2021/08/02 02:50:21;;;;;;;13.25;10.88;;;;;;;12.77;53.05;95197.66;5006264;28;20501;-66
2021/08/02 02:52:46;;;;;;;11.63;9.05;;;;;;;12.36;54.27;95207.41;5007688;28;20533;-66
2021/08/02 02:55:12;;;;;;;13.50;11.07;;;;;;;12.60;53.97;95201.72;5011922;28;20044;-65
2021/08/02 02:57:38;;;;;;;15.02;11.18;;;;;;;12.41;54.43;95209.47;4989710;28;20036;-65
2021/08/02 03:00:06;;;;;;;18.85;12.13;;;;;;;12.56;54.05;95211.97;5007410;28;20057;-66
2021/08/02 03:02:31;;;;;;;;;;;;;;;12.53;54.21;95207.03;5002889;28;20095;-65
2021/08/02 03:04:57;;;;;;;16.57;11.37;;;;;;;11.96;55.81;95216.00;5005206;28;20043;-66
2021/08/02 03:07:22;;;;;;;13.93;10.45;;;;;;;12.62;54.02;95213.03;4988861;28;20048;-66
2021/08/02 03:09:48;;;;;;;14.82;9.63;;;;;;;12.39;54.86;95222.19;5006092;28;20053;-66
2021/08/02 03:12:13;;;;;;;9.95;7.00;;;;;;;12.36;54.25;95218.06;5007153;28;20048;-66
2021/08/02 03:14:39;;;;;;;8.63;6.40;;;;;;;12.54;54.19;95220.19;5007770;28;20041;-66
2021/08/02 03:17:08;;;;;;;6.70;5.70;;;;;;;11.97;55.00;95214.16;5007079;28;20702;-66
2021/08/02 03:19:34;;;;;;;7.30;6.00;;;;;;;11.98;55.30;95218.47;5006907;28;20077;-66
2021/08/02 03:22:01;;;;;;;6.80;5.85;;;;;;;12.44;54.18;95218.94;5007408;28;20037;-66
2021/08/02 03:24:34;;;;;;;7.65;6.07;;;;;;;12.51;54.25;95209.91;4997540;28;20053;-66
2021/08/02 03:27:04;;;;;;;7.07;5.85;;;;;;;12.51;54.35;95212.56;4992667;28;20041;-66
2021/08/02 03:29:33;;;;;;;6.75;5.35;;;;;;;12.80;52.55;95204.44;5006187;28;20487;-66
2021/08/02 03:32:04;;;;;;;5.88;4.63;;;;;;;12.75;52.88;95209.56;5004876;28;20103;-66
2021/08/02 03:34:31;;;;;;;6.63;4.60;;;;;;;12.61;53.30;95214.88;5007357;28;20034;-66
2021/08/02 03:36:57;;;;;;;6.10;5.05;;;;;;;12.64;53.57;95216.31;4988860;28;20045;-66
2021/08/02 03:39:23;;;;;;;4.60;4.18;;;;;;;12.51;54.07;95227.78;5005818;28;20388;-66
2021/08/02 03:41:48;;;;;;;5.25;3.97;;;;;;;12.63;53.13;95226.19;4989666;28;20491;-66
2021/08/02 03:44:14;;;;;;;6.95;5.00;;;;;;;12.54;53.79;95230.03;5007343;28;20038;-66
2021/08/02 03:46:40;;;;;;;5.60;4.60;;;;;;;12.32;54.69;95234.69;5005634;28;20032;-66
2021/08/02 03:49:05;;;;;;;4.70;4.15;;;;;;;12.71;54.11;95233.19;5005666;28;20129;-66
2021/08/02 03:51:55;;;;;;;4.80;4.30;;;;;;;12.96;53.25;95227.28;5006909;28;20042;-66
2021/08/02 03:54:20;;;;;;;5.75;4.72;;;;;;;12.54;53.78;95243.38;5002500;28;20053;-66
2021/08/02 03:56:46;;;;;;;5.78;4.82;;;;;;;12.45;54.07;95245.44;5007063;28;20092;-66
2021/08/02 03:59:11;;;;;;;6.53;5.25;;;;;;;12.73;53.07;95244.50;5038792;28;20046;-66
2021/08/02 04:01:41;;;;;;;6.90;5.30;;;;;;;12.70;53.53;95244.06;5007447;28;20410;-68
2021/08/02 04:04:06;;;;;;;6.25;5.40;;;;;;;12.50;54.36;95245.66;5001718;28;20100;-66
2021/08/02 04:06:32;;;;;;;7.55;5.50;;;;;;;12.89;53.48;95247.81;5037287;28;20045;-66
2021/08/02 04:08:58;;;;;;;9.80;6.40;;;;;;;11.71;56.55;95250.31;5009936;28;20041;-66
2021/08/02 04:11:23;;;;;;;8.20;6.70;;;;;;;12.36;55.02;95254.59;5010445;28;20053;-66
2021/08/02 04:13:49;;;;;;;10.10;6.50;;;;;;;12.65;54.36;95255.34;5011714;28;20446;-66
2021/08/02 04:16:14;;;;;;;9.57;6.95;;;;;;;12.71;54.05;95261.75;5010544;28;20030;-66
2021/08/02 04:18:40;;;;;;;9.95;6.88;;;;;;;12.92;53.43;95256.25;5004822;28;20041;-66
2021/08/02 04:21:05;;;;;;;11.63;8.27;;;;;;;12.98;52.98;95257.28;5010305;28;20061;-66
2021/08/02 04:23:30;;;;;;;9.73;7.90;;;;;;;13.11;53.06;95253.84;5010855;28;20092;-66
2021/08/02 04:25:56;;;;;;;13.00;7.90;;;;;;;11.99;55.91;95252.13;5010967;28;20080;-65
2021/08/02 04:28:21;;;;;;;11.00;7.15;;;;;;;12.83;53.90;95252.13;5010623;28;20118;-65
2021/08/02 04:30:47;;;;;;;9.25;6.85;;;;;;;12.84;53.37;95256.44;5010234;28;20086;-65
2021/08/02 04:33:12;;;;;;;13.70;8.20;;;;;;;12.56;53.87;95260.03;5009746;28;20169;-65
2021/08/02 04:35:39;;;;;;;13.00;7.88;;;;;;;12.71;53.56;95254.53;5009940;28;20681;-66
2021/08/02 04:38:05;;;;;;;10.70;7.97;;;;;;;12.96;53.18;95253.19;5010845;28;20056;-66
2021/08/02 04:40:30;;;;;;;13.23;8.32;;;;;;;11.91;56.12;95263.78;5009886;28;20113;-65
2021/08/02 04:42:55;;;;;;;8.30;7.22;;;;;;;12.83;53.64;95252.13;5010288;28;20086;-65
2021/08/02 04:45:21;;;;;;;8.90;7.65;;;;;;;12.97;53.50;95260.16;5008595;28;20556;-66
2021/08/02 04:47:46;;;;;;;11.93;8.27;;;;;;;12.03;55.27;95262.22;5009943;28;20104;-66
2021/08/02 04:50:12;;;;;;;9.50;7.47;;;;;;;12.72;54.34;95256.19;5010884;28;20060;-66
2021/08/02 04:52:37;;;;;;;9.00;7.07;;;;;;;13.30;52.64;95254.91;5009441;28;20562;-66
2021/08/02 04:55:03;;;;;;;10.43;7.30;;;;;;;13.10;52.91;95259.41;5009772;28;20506;-66
2021/08/02 04:57:28;;;;;;;11.55;7.97;;;;;;;13.17;52.38;95250.38;5010454;28;20030;-66
2021/08/02 04:59:54;;;;;;;11.40;8.18;;;;;;;12.53;54.28;95257.75;5000794;28;20042;-66
2021/08/02 05:02:19;;;;;;;10.10;7.78;;;;;;;12.35;54.98;95253.81;5001484;28;20053;-66
2021/08/02 05:04:45;;;;;;;16.63;8.50;;;;;;;12.93;53.32;95255.22;5002873;28;20125;-66
2021/08/02 05:07:10;;;;;;;9.15;7.10;;;;;;;12.98;53.53;95248.47;5004897;28;20499;-66
2021/08/02 05:09:36;;;;;;;10.43;7.28;;;;;;;13.16;53.08;95255.94;5006115;28;20805;-66
2021/08/02 05:12:01;;;;;;;9.95;7.65;;;;;;;13.03;53.26;95254.06;5006146;28;20038;-66
2021/08/02 05:14:27;;;;;;;9.43;6.90;;;;;;;12.61;54.46;95262.94;5004238;28;20473;-65
2021/08/02 05:16:52;;;;;;;11.65;8.30;;;;;;;12.75;54.09;95261.13;5006163;28;20045;-66
2021/08/02 05:19:17;;;;;;;9.82;8.45;;;;;;;12.75;54.20;95263.78;5001186;28;20103;-66
2021/08/02 05:21:43;;;;;;;9.82;7.40;;;;;;;13.19;52.95;95263.50;5005711;28;20041;-66
2021/08/02 05:24:08;;;;;;;9.38;7.65;;;;;;;12.63;54.62;95265.41;5005838;28;20038;-66
2021/08/02 05:26:34;;;;;;;8.38;7.20;;;;;;;12.93;53.81;95268.56;5001661;28;20034;-67
2021/08/02 05:28:59;;;;;;;11.25;8.25;;;;;;;12.77;53.75;95268.94;5004057;28;20044;-66
2021/08/02 05:31:24;;;;;;;9.40;7.30;;;;;;;13.24;52.46;95260.25;5003227;28;20034;-66
2021/08/02 05:33:50;;;;;;;9.77;8.13;;;;;;;12.99;53.48;95260.78;5002793;28;20025;-67
2021/08/02 05:36:15;;;;;;;9.50;7.80;;;;;;;12.55;53.89;95274.44;5000736;28;20408;-67
2021/08/02 05:38:42;;;;;;;11.65;8.88;;;;;;;12.71;53.90;95269.75;5002852;28;20029;-66
2021/08/02 05:41:07;;;;;;;13.70;10.40;;;;;;;12.41;54.77;95274.34;5002669;28;20115;-66
2021/08/02 05:43:33;;;;;;;9.65;7.65;;;;;;;12.95;53.64;95278.25;5001823;28;20398;-67
2021/08/02 05:45:58;;;;;;;10.90;7.93;;;;;;;12.77;53.86;95276.94;4999952;28;20026;-67
2021/08/02 05:48:24;;;;;;;12.05;8.23;;;;;;;12.81;54.29;95283.53;4997987;28;20044;-66
2021/08/02 05:50:49;;;;;;;10.90;8.50;;;;;;;13.16;53.52;95278.13;4999902;28;20399;-66
2021/08/02 05:53:14;;;;;;;9.88;7.60;;;;;;;13.09;53.11;95279.94;5003439;28;21464;-66
2021/08/02 05:55:40;;;;;;;9.52;7.35;;;;;;;13.18;52.81;95284.09;5002378;28;20510;-67
2021/08/02 05:58:05;;;;;;;10.25;8.20;;;;;;;12.76;54.50;95283.31;5002984;28;20428;-66
2021/08/02 06:00:31;;;;;;;10.52;7.55;;;;;;;13.06;53.54;95285.72;5003047;28;20041;-66
2021/08/02 06:02:56;;;;;;;10.32;7.40;;;;;;;13.67;51.74;95283.91;4999084;28;20455;-67
2021/08/02 06:05:22;;;;;;;9.70;6.70;;;;;;;13.78;51.36;95281.66;5001347;28;20030;-67
2021/08/02 06:07:47;;;;;;;13.80;10.02;;;;;;;13.68;51.86;95274.88;5005222;28;20041;-66
2021/08/02 06:10:13;;;;;;;12.20;8.70;;;;;;;13.67;51.86;95281.25;5002939;28;20042;-66
2021/08/02 06:12:39;;;;;;;8.45;6.70;;;;;;;13.08;53.13;95280.97;5001297;28;20063;-66
2021/08/02 06:15:05;;;;;;;9.80;7.25;;;;;;;12.69;54.65;95285.16;5010345;28;20017;-67
2021/08/02 06:17:30;;;;;;;8.85;7.35;;;;;;;12.76;53.92;95286.00;5001441;28;20034;-67
2021/08/02 06:19:56;;;;;;;8.95;7.15;;;;;;;13.86;51.68;95286.78;5003436;28;20049;-67
2021/08/02 06:22:21;;;;;;;9.32;7.18;;;;;;;14.12;51.09;95287.00;5001922;28;20033;-67
2021/08/02 06:24:47;;;;;;;8.18;5.97;;;;;;;13.82;51.25;95294.44;5006625;28;20041;-67
2021/08/02 06:27:12;;;;;;;8.30;6.45;;;;;;;13.88;51.68;95290.13;5007094;28;20107;-66
2021/08/02 06:29:38;;;;;;;11.57;5.85;;;;;;;14.05;50.55;95292.38;5002176;28;20073;-67
2021/08/02 06:32:05;;;;;;;7.90;6.03;;;;;;;13.78;50.28;95292.34;5000470;28;20085;-66
2021/08/02 06:34:30;;;;;;;7.45;6.03;;;;;;;13.66;51.66;95289.47;5000884;28;20093;-67
2021/08/02 06:36:56;;;;;;;7.10;5.65;;;;;;;13.66;51.69;95295.66;5003997;28;20707;-67
2021/08/02 06:39:21;;;;;;;7.15;5.95;;;;;;;13.75;51.09;95295.44;5001524;28;20121;-67
2021/08/02 06:41:46;;;;;;;7.70;5.82;;;;;;;13.67;51.29;95294.63;5006890;28;20045;-67
2021/08/02 06:44:12;;;;;;;10.40;6.53;;;;;;;13.44;52.00;95303.84;5000737;28;20504;-67
2021/08/02 06:46:37;;;;;;;11.43;7.50;;;;;;;12.35;54.80;95299.19;5001376;28;20053;-67
2021/08/02 06:49:03;;;;;;;17.10;13.50;;;;;;;11.92;56.67;95299.25;4997175;28;20033;-68
2021/08/02 06:51:28;;;;;;;9.90;8.25;;;;;;;12.58;55.00;95299.91;5006536;28;20562;-67
2021/08/02 06:53:55;;;;;;;10.52;7.20;;;;;;;13.31;52.83;95294.00;5002889;28;20030;-67
2021/08/02 06:56:21;;;;;;;7.53;5.97;;;;;;;13.62;51.82;95298.94;5003364;28;20045;-67
2021/08/02 06:58:46;;;;;;;9.10;6.75;;;;;;;13.54;52.21;95294.63;5001439;28;20698;-67
2021/08/02 07:01:12;;;;;;;11.05;7.25;;;;;;;12.50;55.32;95303.53;5000228;28;20550;-67
2021/08/02 07:03:37;;;;;;;10.23;6.53;;;;;;;12.75;54.89;95306.53;4999163;28;20037;-67
2021/08/02 07:06:02;;;;;;;9.32;6.45;;;;;;;13.92;51.89;95299.38;5000054;28;20034;-67
2021/08/02 07:08:28;;;;;;;10.05;5.72;;;;;;;13.89;51.94;95299.78;5001402;28;20103;-68
2021/08/02 07:10:53;;;;;;;8.48;5.72;;;;;;;13.71;51.47;95308.41;5001155;28;20680;-66
2021/08/02 07:13:19;;;;;;;8.95;5.70;;;;;;;14.16;51.14;95304.28;5001769;28;20543;-67
2021/08/02 07:15:44;;;;;;;7.20;5.72;;;;;;;14.46;50.54;95309.16;5000594;28;20523;-67
2021/08/02 07:18:10;;;;;;;7.85;6.22;;;;;;;13.48;52.22;95322.16;5001871;28;20644;-67
2021/08/02 07:20:35;;;;;;;7.10;6.03;;;;;;;13.85;51.36;95314.59;5000557;28;20041;-68
2021/08/02 07:23:01;;;;;;;7.93;6.07;;;;;;;14.27;50.06;95311.69;5002085;28;20525;-68
2021/08/02 07:25:26;;;;;;;7.85;5.75;;;;;;;14.59;49.76;95313.69;5000177;28;20040;-67
2021/08/02 07:27:52;;;;;;;7.75;5.68;;;;;;;14.15;50.62;95314.19;5000880;28;20415;-68
2021/08/02 07:30:17;;;;;;;9.38;5.90;;;;;;;14.09;50.74;95315.00;5000665;28;20148;-67
2021/08/02 07:32:42;;;;;;;7.63;5.88;;;;;;;13.93;50.89;95321.59;5000786;28;20049;-68
2021/08/02 07:35:08;;;;;;;7.38;6.13;;;;;;;14.69;49.37;95324.75;4996265;28;20140;-68
2021/08/02 07:37:33;;;;;;;8.13;5.85;;;;;;;14.67;48.73;95317.97;5003734;28;20061;-68
2021/08/02 07:39:59;;;;;;;8.18;6.30;;;;;;;14.36;49.06;95323.00;5003257;28;20041;-67
2021/08/02 07:42:25;;;;;;;8.13;6.00;;;;;;;13.65;51.90;95326.13;4995576;28;20407;-68
2021/08/02 07:44:51;;;;;;;8.50;6.20;;;;;;;13.72;52.22;95328.78;4997687;28;20129;-72
2021/08/02 07:47:16;;;;;;;6.55;5.78;;;;;;;14.62;49.81;95320.47;4997739;28;20044;-68
2021/08/02 07:49:42;;;;;;;8.60;6.10;;;;;;;14.62;48.60;95325.81;4999611;28;20042;-68
2021/08/02 07:52:07;;;;;;;9.55;5.65;;;;;;;14.84;48.18;95326.38;4999717;28;20042;-68
2021/08/02 07:54:33;;;;;;;8.02;5.57;;;;;;;14.55;49.30;95328.53;5004507;28;20077;-68
2021/08/02 07:56:58;;;;;;;6.80;5.45;;;;;;;14.97;48.41;95322.81;4999542;28;20138;-68
2021/08/02 07:59:23;;;;;;;11.82;6.15;;;;;;;14.61;49.62;95322.31;5006047;28;20034;-68
2021/08/02 08:01:49;;;;;;;6.78;5.60;;;;;;;15.01;47.54;95323.22;4999002;28;20444;-68
2021/08/02 08:04:14;;;;;;;8.85;5.45;;;;;;;14.78;48.03;95319.19;4997472;28;20045;-68
2021/08/02 08:06:40;;;;;;;7.63;5.25;;;;;;;14.85;47.91;95323.50;4997508;28;20527;-68
2021/08/02 08:09:05;;;;;;;8.18;4.93;;;;;;;15.02;47.44;95317.63;5000196;28;20046;-67
2021/08/02 08:11:31;;;;;;;6.90;5.40;;;;;;;15.05;47.85;95325.25;5005027;28;20049;-68
2021/08/02 08:13:56;;;;;;;9.55;5.00;;;;;;;15.01;48.04;95321.38;5002265;28;20046;-67
2021/08/02 08:16:22;;;;;;;6.95;4.95;;;;;;;14.24;49.36;95319.31;5006488;28;20034;-68
2021/08/02 08:18:47;;;;;;;7.47;5.38;;;;;;;13.21;52.61;95322.94;5007744;28;20529;-67
2021/08/02 08:21:13;;;;;;;6.65;4.93;;;;;;;15.57;48.10;95316.31;4998987;28;20049;-67
2021/08/02 08:23:38;;;;;;;5.97;4.40;;;;;;;15.96;45.11;95315.41;5005084;28;20034;-67
2021/08/02 08:26:03;;;;;;;6.85;4.18;;;;;;;15.58;45.95;95325.19;5005541;28;20368;-67
2021/08/02 08:28:29;;;;;;;4.78;4.20;;;;;;;15.03;47.61;95323.84;5003406;28;20046;-68
2021/08/02 08:30:54;;;;;;;6.72;4.13;;;;;;;15.16;46.66;95320.25;5007331;28;20510;-68
2021/08/02 08:33:20;;;;;;;5.55;4.10;;;;;;;15.31;46.58;95317.28;5003565;28;20065;-67
2021/08/02 08:35:45;;;;;;;6.30;3.70;;;;;;;15.51;45.75;95316.34;5005043;28;20046;-68
2021/08/02 08:38:11;;;;;;;6.05;4.00;;;;;;;16.21;44.98;95315.38;5008238;28;20049;-68
2021/08/02 08:40:36;;;;;;;6.13;4.43;;;;;;;16.33;42.50;95314.66;5004894;28;20148;-68
2021/08/02 08:43:02;;;;;;;6.75;4.45;;;;;;;16.38;43.09;95309.44;5006502;28;20097;-68
2021/08/02 08:45:28;;;;;;;6.95;5.07;;;;;;;16.22;43.48;95305.47;5006756;28;20628;-68
2021/08/02 08:47:56;;;;;;;5.25;3.70;;;;;;;17.29;42.16;95313.34;5007083;28;20038;-68
2021/08/02 08:50:21;;;;;;;4.20;3.50;;;;;;;17.33;41.94;95305.66;5010866;28;20106;-67
2021/08/02 08:52:47;;;;;;;6.60;3.67;;;;;;;16.79;41.80;95309.81;5005969;28;20132;-68
2021/08/02 08:55:13;;;;;;;3.97;3.15;;;;;;;17.14;40.97;95311.88;5012002;28;20121;-66
2021/08/02 08:57:40;;;;;;;4.97;3.50;;;;;;;17.45;40.78;95309.19;5009547;28;20036;-67
2021/08/02 09:00:07;;;;;;;5.47;3.45;;;;;;;16.21;43.08;95318.06;5010183;28;20103;-67
2021/08/02 09:02:32;;;;;;;4.45;2.75;;;;;;;16.82;42.04;95327.38;4995032;28;20038;-68
2021/08/02 09:04:59;;;;;;;2.97;2.75;;;;;;;16.75;41.12;95317.53;5005407;28;20046;-66
2021/08/02 09:07:36;;;;;;;5.60;2.80;;;;;;;16.19;42.92;95317.47;5010224;28;20486;-66
2021/08/02 09:10:03;;;;;;;5.13;3.00;;;;;;;15.84;43.87;95315.31;5006981;28;20062;-66
2021/08/02 09:12:29;;;;;;;5.63;2.95;;;;;;;15.65;45.49;95319.78;5007820;28;20065;-68
2021/08/02 09:14:59;;;;;;;4.88;2.75;;;;;;;15.87;44.55;95313.00;5009633;28;20034;-67
2021/08/02 09:17:35;;;;;;;4.00;3.10;;;;;;;16.17;43.97;95316.84;5010182;28;20193;-67
2021/08/02 09:20:06;;;;;;;3.95;2.83;;;;;;;15.11;45.92;95323.59;5009659;28;20482;-67
2021/08/02 09:22:34;;;;;;;5.03;2.80;;;;;;;15.39;48.03;95330.44;5011193;28;20228;-67
2021/08/02 09:25:13;;;;;;;3.40;2.72;;;;;;;13.82;50.31;95321.19;5008660;28;20149;-65
2021/08/02 09:27:39;;;;;;;3.65;2.75;;;;;;;13.67;50.71;95320.56;5009826;28;20518;-68
2021/08/02 09:30:17;;;;;;;3.17;2.60;;;;;;;12.10;53.56;95333.50;5008511;28;20060;-67
2021/08/02 09:32:54;;;;;;;4.45;2.78;;;;;;;12.30;55.16;95338.97;5008842;28;20375;-67
2021/08/02 09:35:39;;;;;;;4.30;2.95;;;;;;;11.89;56.48;95335.16;5028980;28;20041;-67
2021/08/02 09:38:09;;;;;;;4.13;3.08;;;;;;;11.88;57.41;95337.03;5008492;28;20062;-67
2021/08/02 09:40:45;;;;;;;6.10;2.92;;;;;;;11.96;55.52;95341.38;5006619;28;20487;-68
2021/08/02 09:43:16;;;;;;;2.97;2.20;;;;;;;12.20;54.23;95338.50;5007448;28;20424;-68
2021/08/02 09:45:52;;;;;;;3.17;2.20;;;;;;;12.78;52.70;95332.00;5009554;28;20091;-68
2021/08/02 09:48:19;;;;;;;2.97;2.10;;;;;;;12.78;52.12;95327.50;5009931;28;20046;-68
2021/08/02 09:50:46;;;;;;;3.10;1.90;;;;;;;12.86;50.87;95325.69;5008668;28;20038;-67
2021/08/02 09:53:16;;;;;;;2.17;2.03;;;;;;;13.12;51.48;95324.97;5007101;28;20068;-67
2021/08/02 09:55:43;;;;;;;2.92;2.03;;;;;;;13.66;49.55;95314.38;5007818;28;20044;-68
2021/08/02 09:58:14;;;;;;;3.03;1.80;;;;;;;14.03;49.02;95322.00;5014264;28;20026;-68
2021/08/02 10:00:40;;;;;;;5.35;1.70;;;;;;;14.33;48.10;95324.25;5007008;28;20033;-68
2021/08/02 10:03:06;;;;;;;2.08;1.90;;;;;;;14.97;46.63;95314.78;5004615;28;20033;-68
2021/08/02 10:05:31;;;;;;;2.95;1.90;;;;;;;14.79;48.39;95323.53;5006333;28;20087;-68
2021/08/02 10:07:56;;;;;;;2.90;2.50;;;;;;;15.07;46.52;95320.53;5031316;28;20396;-68
2021/08/02 10:10:22;;;;;;;2.80;2.10;;;;;;;15.44;46.73;95322.56;5005694;28;20042;-68
2021/08/02 10:12:48;;;;;;;3.33;2.63;;;;;;;14.98;47.78;95325.31;4997769;28;20838;-68
2021/08/02 10:15:16;;;;;;;5.30;3.38;;;;;;;15.39;47.14;95321.56;5006665;28;20495;-67
2021/08/02 10:17:46;;;;;;;6.38;3.67;;;;;;;15.43;46.94;95326.28;5004418;28;20495;-68
2021/08/02 10:20:22;;;;;;;9.02;6.45;;;;;;;15.66;47.64;95327.59;5003074;28;20076;-67
2021/08/02 10:22:48;;;;;;;2.50;2.30;;;;;;;15.56;47.26;95335.31;5005699;28;20278;-68
2021/08/02 10:25:13;;;;;;;3.88;2.80;;;;;;;15.72;47.75;95333.97;5001796;28;20424;-67
2021/08/02 10:27:39;;;;;;;3.50;3.03;;;;;;;16.40;44.96;95336.91;5004546;28;20030;-68
2021/08/02 10:30:25;;;;;;;5.07;3.13;;;;;;;16.19;46.77;95347.00;5000712;28;20545;-68
2021/08/02 10:32:57;;;;;;;4.15;3.15;;;;;;;15.72;47.84;95355.44;4996609;28;20069;-68
2021/08/02 10:35:39;;;;;;;4.53;3.13;;;;;;;15.60;48.07;95349.94;5001099;28;20066;-68
2021/08/02 10:38:09;;;;;;;4.55;3.33;;;;;;;15.58;47.90;95343.97;4999931;28;20131;-67
2021/08/02 10:40:45;;;;;;;3.55;3.20;;;;;;;15.52;48.57;95337.56;4999031;28;20046;-68
2021/08/02 10:43:11;;;;;;;4.82;3.55;;;;;;;14.37;51.19;95337.19;4998788;28;20029;-67
2021/08/02 10:45:38;;;;;;;3.78;3.15;;;;;;;14.10;52.01;95343.41;5007915;28;20486;-68
2021/08/02 10:48:04;;;;;;;4.50;3.47;;;;;;;14.59;50.33;95343.13;5001457;28;20041;-68
2021/08/02 10:50:30;;;;;;;4.25;3.80;;;;;;;13.93;53.26;95333.13;5003638;28;20510;-67
2021/08/02 10:52:56;;;;;;;6.72;3.65;;;;;;;13.93;51.59;95330.47;5001597;28;20034;-67
2021/08/02 10:55:25;;;;;;;4.75;3.53;;;;;;;14.00;50.73;95330.44;5000089;28;20557;-67
2021/08/02 10:57:57;;;;;;;3.80;3.33;;;;;;;14.38;51.07;95323.59;4996341;28;20030;-67
2021/08/02 11:00:23;;;;;;;4.68;3.30;;;;;;;14.79;49.56;95334.25;5000521;28;20037;-67
2021/08/02 11:02:55;;;;;;;5.68;3.72;;;;;;;14.71;49.85;95328.06;5000270;28;20041;-68
2021/08/02 11:05:21;;;;;;;5.63;4.00;;;;;;;15.04;50.76;95325.47;4999525;28;20140;-69
2021/08/02 11:07:47;;;;;;;3.45;3.08;;;;;;;16.07;46.86;95314.69;4998496;28;20481;-68
2021/08/02 11:10:14;;;;;;;4.35;3.00;;;;;;;15.44;49.38;95313.69;5001094;28;20061;-68
2021/08/02 11:12:44;;;;;;;4.45;3.28;;;;;;;16.53;45.84;95309.09;5001007;28;20578;-67
2021/08/02 11:15:09;;;;;;;3.13;2.83;;;;;;;17.17;42.88;95316.00;5001015;28;20030;-68
2021/08/02 11:17:35;;;;;;;4.45;2.85;;;;;;;16.95;44.79;95316.47;5001043;28;20116;-68
2021/08/02 11:20:02;;;;;;;3.22;2.25;;;;;;;16.92;44.15;95321.47;5000161;28;20049;-69
2021/08/02 11:22:27;;;;;;;2.97;2.20;;;;;;;17.25;42.13;95323.75;5000966;28;20116;-69
2021/08/02 11:24:54;;;;;;;4.07;2.28;;;;;;;17.29;42.21;95321.44;5002052;28;20041;-69
2021/08/02 11:27:20;;;;;;;2.35;2.15;;;;;;;16.94;43.66;95332.81;5000592;28;20037;-68
2021/08/02 11:29:55;;;;;;;2.15;2.00;;;;;;;16.49;43.61;95324.84;5001257;28;20075;-68
2021/08/02 11:32:21;;;;;;;5.05;2.50;;;;;;;16.59;44.51;95328.88;5000895;28;20041;-69